| time (UTC) | temp F | wind direction | speed MPH | gust MPH | rain 1hr in | rain 24hr in | rain mn in | humidity % | barometer mb |
| 20260508043347 | 38 | 195 | 0.0 | 0.0 | 0.00 | 0.00 | 0.00 | 91 | 1013.8 |
| 20260508042723 | 38 | 193 | 0.0 | 0.0 | 0.00 | 0.00 | 0.00 | 91 | 1013.5 |
| 20260508042141 | 39 | 192 | 0.0 | 0.0 | 0.00 | 0.00 | 0.00 | 91 | 1013.8 |
| 20260508041532 | 39 | 192 | 0.0 | 0.0 | 0.00 | 0.00 | 0.00 | 90 | 1013.5 |
| 20260508040318 | 39 | 196 | 0.0 | 0.0 | 0.00 | 0.00 | 0.00 | 88 | 1013.5 |
| 20260508035120 | 40 | 198 | 0.0 | 0.0 | 0.00 | 0.00 | 0.01 | 88 | 1013.5 |
| 20260508034526 | 40 | 199 | 0.0 | 0.0 | 0.00 | 0.00 | 0.01 | 87 | 1013.5 |
| 20260508033916 | 40 | 199 | 0.0 | 0.0 | 0.00 | 0.00 | 0.01 | 88 | 1013.2 |
| 20260508033321 | 40 | 199 | 0.0 | 0.0 | 0.00 | 0.00 | 0.01 | 86 | 1013.2 |
| 20260508032734 | 41 | 199 | 0.0 | 0.0 | 0.00 | 0.00 | 0.01 | 85 | 1013.2 |
| 20260508032147 | 41 | 199 | 0.0 | 0.0 | 0.00 | 0.00 | 0.01 | 85 | 1013.2 |
| 20260508031526 | 41 | 199 | 0.0 | 0.0 | 0.00 | 0.00 | 0.01 | 84 | 1013.2 |
| 20260508030931 | 41 | 199 | 0.0 | 0.0 | 0.00 | 0.00 | 0.01 | 84 | 1013.2 |
| 20260508030311 | 42 | 197 | 0.0 | 0.0 | 0.00 | 0.00 | 0.01 | 85 | 1013.2 |
| 20260508025719 | 42 | 196 | 0.0 | 0.0 | 0.00 | 0.00 | 0.01 | 84 | 1013.2 |
| 20260508025114 | 42 | 195 | 0.0 | 0.0 | 0.00 | 0.00 | 0.01 | 83 | 1013.2 |
| 20260508024525 | 43 | 195 | 0.0 | 0.0 | 0.00 | 0.00 | 0.01 | 82 | 1013.2 |
| 20260508023946 | 43 | 196 | 0.0 | 0.0 | 0.00 | 0.00 | 0.01 | 81 | 1012.8 |
| 20260508023341 | 43 | 195 | 0.0 | 0.0 | 0.00 | 0.00 | 0.01 | 80 | 1012.8 |
| 20260508022723 | 43 | 193 | 0.0 | 0.0 | 0.00 | 0.00 | 0.01 | 81 | 1012.8 |
| 20260508021515 | 44 | 193 | 0.0 | 0.0 | 0.00 | 0.00 | 0.01 | 78 | 1012.5 |
| 20260508020945 | 44 | 195 | 0.0 | 0.0 | 0.00 | 0.00 | 0.01 | 80 | 1012.8 |
| 20260508020349 | 44 | 196 | 0.0 | 0.0 | 0.00 | 0.00 | 0.01 | 79 | 1012.5 |
| 20260508015738 | 44 | 193 | 0.0 | 0.0 | 0.00 | 0.00 | 0.01 | 79 | 1012.5 |
| 20260508015145 | 45 | 193 | 0.0 | 0.0 | 0.00 | 0.00 | 0.01 | 80 | 1012.1 |
| 20260508014517 | 45 | 189 | 0.0 | 0.0 | 0.00 | 0.00 | 0.01 | 78 | 1012.1 |
| 20260508012725 | 47 | 210 | 0.0 | 1.0 | 0.00 | 0.00 | 0.01 | 74 | 1012.1 |
| 20260508011528 | 47 | 205 | 0.0 | 0.0 | 0.00 | 0.00 | 0.01 | 75 | 1011.8 |
| 20260508010935 | 48 | 202 | 0.0 | 0.0 | 0.00 | 0.00 | 0.01 | 73 | 1011.8 |
| 20260508010349 | 48 | 204 | 0.0 | 0.0 | 0.00 | 0.00 | 0.01 | 70 | 1011.5 |
| 20260508005736 | 49 | 202 | 0.0 | 0.0 | 0.00 | 0.00 | 0.01 | 71 | 1011.5 |
| 20260508003908 | 50 | 197 | 0.0 | 0.0 | 0.00 | 0.00 | 0.01 | 75 | 1011.5 |
| 20260508003340 | 50 | 200 | 0.0 | 0.0 | 0.00 | 0.00 | 0.01 | 75 | 1011.5 |
| 20260508002734 | 51 | 190 | 0.0 | 0.0 | 0.00 | 0.00 | 0.01 | 75 | 1011.1 |
| 20260508002110 | 51 | 193 | 0.0 | 0.0 | 0.00 | 0.00 | 0.01 | 72 | 1011.1 |
| 20260508001532 | 51 | 201 | 0.0 | 0.0 | 0.00 | 0.00 | 0.01 | 71 | 1011.1 |
| 20260508000949 | 51 | 163 | 1.0 | 1.0 | 0.00 | 0.00 | 0.01 | 72 | 1010.8 |
| 20260508000335 | 52 | 196 | 0.0 | 0.0 | 0.00 | 0.00 | 0.01 | 73 | 1010.8 |
| 20260507235747 | 53 | 206 | 0.0 | 0.0 | 0.00 | 0.00 | 0.01 | 76 | 1010.4 |
| 20260507235119 | 53 | 167 | 0.0 | 1.0 | 0.00 | 0.00 | 0.01 | 66 | 1010.8 |
| 20260507234551 | 54 | 198 | 0.0 | 0.0 | 0.00 | 0.00 | 0.01 | 69 | 1010.4 |
| 20260507233938 | 54 | 200 | 1.0 | 1.0 | 0.00 | 0.00 | 0.01 | 59 | 1010.4 |
| 20260507233347 | 55 | 201 | 0.0 | 0.0 | 0.00 | 0.00 | 0.01 | 69 | 1010.4 |
| 20260507231535 | 58 | 195 | 0.0 | 1.0 | 0.00 | 0.00 | 0.01 | 64 | 1010.4 |
| 20260507225744 | 61 | 284 | 0.0 | 1.0 | 0.00 | 0.00 | 0.01 | 46 | 1010.1 |
| 20260507225120 | 60 | 191 | 0.0 | 0.0 | 0.00 | 0.00 | 0.01 | 49 | 1010.1 |
| 20260507224527 | 60 | 171 | 1.0 | 1.0 | 0.00 | 0.00 | 0.01 | 58 | 1010.1 |
| 20260507223918 | 60 | 200 | 0.0 | 0.0 | 0.00 | 0.00 | 0.01 | 53 | 1010.1 |
| 20260507223338 | 59 | 187 | 1.0 | 1.0 | 0.00 | 0.00 | 0.01 | 66 | 1010.1 |
| 20260507222719 | 59 | 173 | 1.0 | 2.0 | 0.00 | 0.00 | 0.01 | 47 | 1009.8 |
| 20260507221516 | 59 | 207 | 0.0 | 1.0 | 0.00 | 0.00 | 0.01 | 44 | 1010.1 |
| 20260507220312 | 60 | 188 | 0.0 | 0.0 | 0.00 | 0.00 | 0.01 | 46 | 1009.8 |
| 20260507215738 | 60 | 191 | 0.0 | 0.0 | 0.00 | 0.00 | 0.01 | 47 | 1009.8 |
| 20260507215144 | 59 | 210 | 1.0 | 1.0 | 0.00 | 0.00 | 0.01 | 49 | 1009.8 |
| 20260507213944 | 61 | 168 | 0.0 | 1.0 | 0.00 | 0.00 | 0.01 | 50 | 1009.4 |
| 20260507212737 | 61 | 185 | 2.0 | 2.0 | 0.00 | 0.00 | 0.01 | 42 | 1009.4 |
| 20260507211532 | 60 | 197 | 2.0 | 3.0 | 0.00 | 0.00 | 0.01 | 45 | 1009.4 |
| 20260507210928 | 60 | 132 | 2.0 | 3.0 | 0.00 | 0.00 | 0.01 | 42 | 1009.4 |
| 20260507210344 | 61 | 175 | 2.0 | 2.0 | 0.00 | 0.00 | 0.01 | 56 | 1009.4 |
| 20260507204547 | 61 | 189 | 0.0 | 1.0 | 0.00 | 0.00 | 0.01 | 57 | 1009.4 |
| 20260507202737 | 61 | 245 | 4.0 | 6.0 | 0.00 | 0.00 | 0.01 | 46 | 1009.4 |
| 20260507202152 | 61 | 188 | 0.0 | 1.0 | 0.00 | 0.00 | 0.01 | 47 | 1009.4 |
| 20260507201538 | 61 | 142 | 1.0 | 1.0 | 0.00 | 0.00 | 0.01 | 45 | 1009.1 |
| 20260507200938 | 62 | 290 | 2.0 | 3.0 | 0.00 | 0.00 | 0.01 | 43 | 1009.4 |
| 20260507195752 | 60 | 152 | 1.0 | 1.0 | 0.00 | 0.00 | 0.01 | 45 | 1009.4 |
| 20260507195151 | 60 | 221 | 3.0 | 4.0 | 0.00 | 0.00 | 0.01 | 47 | 1009.4 |
| 20260507194514 | 62 | 171 | 1.0 | 2.0 | 0.00 | 0.00 | 0.01 | 46 | 1009.4 |
| 20260507193951 | 62 | 165 | 1.0 | 1.0 | 0.00 | 0.00 | 0.01 | 45 | 1009.8 |
| 20260507192732 | 60 | 179 | 4.0 | 4.0 | 0.00 | 0.00 | 0.01 | 47 | 1009.8 |
| 20260507192146 | 60 | 222 | 1.0 | 1.0 | 0.00 | 0.00 | 0.01 | 51 | 1009.8 |
| 20260507191535 | 59 | 186 | 1.0 | 1.0 | 0.00 | 0.00 | 0.01 | 50 | 1010.1 |
| 20260507190936 | 59 | 183 | 1.0 | 1.0 | 0.00 | 0.00 | 0.01 | 49 | 1010.1 |
| 20260507185724 | 62 | 210 | 3.0 | 4.0 | 0.00 | 0.00 | 0.01 | 44 | 1009.8 |
| 20260507185150 | 62 | 184 | 4.0 | 7.0 | 0.00 | 0.00 | 0.01 | 45 | 1010.1 |
| 20260507184549 | 62 | 161 | 1.0 | 2.0 | 0.00 | 0.00 | 0.01 | 46 | 1010.1 |
| 20260507183951 | 61 | 209 | 2.0 | 3.0 | 0.00 | 0.00 | 0.01 | 49 | 1010.1 |
| 20260507183308 | 61 | 139 | 2.0 | 3.0 | 0.00 | 0.00 | 0.01 | 45 | 1009.8 |
| 20260507182714 | 61 | 190 | 0.0 | 1.0 | 0.00 | 0.00 | 0.01 | 48 | 1010.1 |
| 20260507182150 | 60 | 125 | 1.0 | 1.0 | 0.00 | 0.00 | 0.01 | 49 | 1010.1 |
| 20260507181510 | 60 | 212 | 1.0 | 1.0 | 0.00 | 0.00 | 0.01 | 50 | 1010.1 |
| 20260507180928 | 59 | 170 | 1.0 | 2.0 | 0.00 | 0.00 | 0.01 | 55 | 1010.1 |
| 20260507180324 | 58 | 248 | 2.0 | 3.0 | 0.00 | 0.00 | 0.01 | 50 | 1010.1 |
| 20260507174520 | 59 | 188 | 1.0 | 1.0 | 0.00 | 0.00 | 0.01 | 52 | 1010.4 |
| 20260507173945 | 60 | 338 | 2.0 | 2.0 | 0.00 | 0.00 | 0.01 | 53 | 1010.4 |
| 20260507172732 | 61 | 185 | 1.0 | 1.0 | 0.00 | 0.00 | 0.01 | 48 | 1010.4 |
| 20260507172129 | 61 | 273 | 1.0 | 3.0 | 0.00 | 0.00 | 0.01 | 53 | 1010.4 |
| 20260507170911 | 58 | 255 | 3.0 | 4.0 | 0.00 | 0.00 | 0.01 | 56 | 1010.8 |
| 20260507170321 | 58 | 142 | 2.0 | 4.0 | 0.00 | 0.00 | 0.01 | 52 | 1010.8 |
| 20260507165750 | 58 | 180 | 2.0 | 2.0 | 0.00 | 0.00 | 0.01 | 60 | 1010.8 |
| 20260507165135 | 57 | 188 | 1.0 | 1.0 | 0.00 | 0.00 | 0.01 | 59 | 1010.8 |
| 20260507163923 | 56 | 181 | 1.0 | 1.0 | 0.00 | 0.00 | 0.01 | 60 | 1011.1 |
| 20260507162722 | 56 | 191 | 0.0 | 0.0 | 0.00 | 0.00 | 0.01 | 65 | 1011.1 |
| 20260507162152 | 57 | 235 | 2.0 | 2.0 | 0.00 | 0.00 | 0.01 | 58 | 1011.1 |
| 20260507161555 | 57 | 182 | 1.0 | 1.0 | 0.00 | 0.00 | 0.01 | 59 | 1011.1 |
| 20260507160923 | 57 | 218 | 1.0 | 1.0 | 0.00 | 0.00 | 0.01 | 59 | 1011.5 |
| 20260507160346 | 56 | 280 | 3.0 | 4.0 | 0.00 | 0.00 | 0.01 | 60 | 1011.5 |
| 20260507155731 | 56 | 213 | 0.0 | 1.0 | 0.00 | 0.00 | 0.01 | 70 | 1011.5 |
| 20260507155123 | 55 | 167 | 1.0 | 2.0 | 0.00 | 0.00 | 0.01 | 68 | 1011.5 |
| 20260507154519 | 55 | 284 | 2.0 | 3.0 | 0.00 | 0.00 | 0.01 | 64 | 1011.5 |
| 20260507153911 | 56 | 102 | 2.0 | 3.0 | 0.00 | 0.00 | 0.01 | 67 | 1011.5 |
| 20260507153315 | 55 | 220 | 1.0 | 1.0 | 0.00 | 0.00 | 0.01 | 76 | 1011.5 |
| 20260507152750 | 55 | 225 | 2.0 | 2.0 | 0.00 | 0.00 | 0.01 | 68 | 1011.8 |
| 20260507151534 | 55 | 233 | 3.0 | 3.0 | 0.00 | 0.00 | 0.01 | 69 | 1011.8 |
| 20260507150347 | 54 | 190 | 1.0 | 1.0 | 0.00 | 0.00 | 0.01 | 82 | 1011.5 |
| 20260507145715 | 54 | 193 | 1.0 | 1.0 | 0.00 | 0.00 | 0.01 | 71 | 1011.8 |
| 20260507145111 | 54 | 115 | 1.0 | 2.0 | 0.00 | 0.00 | 0.01 | 78 | 1011.8 |
| 20260507144515 | 53 | 221 | 2.0 | 3.0 | 0.00 | 0.00 | 0.01 | 74 | 1011.8 |
| 20260507143939 | 52 | 206 | 0.0 | 1.0 | 0.00 | 0.00 | 0.01 | 85 | 1011.8 |
| 20260507143320 | 52 | 188 | 0.0 | 0.0 | 0.00 | 0.00 | 0.01 | 81 | 1011.8 |
| 20260507142123 | 53 | 195 | 0.0 | 0.0 | 0.00 | 0.00 | 0.01 | 83 | 1012.1 |
| 20260507141517 | 52 | 180 | 1.0 | 1.0 | 0.00 | 0.00 | 0.01 | 79 | 1012.5 |
| 20260507140926 | 53 | 203 | 0.0 | 0.0 | 0.00 | 0.00 | 0.01 | 90 | 1012.5 |
| 20260507140342 | 51 | 207 | 1.0 | 1.0 | 0.00 | 0.00 | 0.01 | 89 | 1012.8 |
| 20260507135143 | 51 | 137 | 1.0 | 1.0 | 0.00 | 0.00 | 0.01 | 93 | 1012.8 |
| 20260507134519 | 50 | 237 | 2.0 | 2.0 | 0.00 | 0.00 | 0.01 | 93 | 1012.8 |
| 20260507133319 | 50 | 217 | 0.0 | 1.0 | 0.00 | 0.00 | 0.01 | 92 | 1012.8 |
| 20260507132743 | 50 | 198 | 0.0 | 0.0 | 0.00 | 0.00 | 0.01 | 93 | 1012.8 |
| 20260507132122 | 50 | 189 | 0.0 | 0.0 | 0.00 | 0.00 | 0.01 | 94 | 1012.8 |
| 20260507130911 | 50 | 212 | 0.0 | 0.0 | 0.00 | 0.00 | 0.01 | 95 | 1012.8 |
| 20260507130311 | 50 | 201 | 0.0 | 0.0 | 0.00 | 0.00 | 0.01 | 97 | 1012.8 |
| 20260507124550 | 50 | 203 | 0.0 | 0.0 | 0.00 | 0.00 | 0.01 | 98 | 1012.8 |
| 20260507123943 | 49 | 212 | 0.0 | 0.0 | 0.00 | 0.00 | 0.01 | 99 | 1012.8 |
| 20260507123343 | 49 | 220 | 0.0 | 0.0 | 0.00 | 0.00 | 0.01 | 99 | 1012.8 |
| 20260507122748 | 49 | 221 | 0.0 | 0.0 | 0.00 | 0.00 | 0.01 | 99 | 1012.8 |
| 20260507122127 | 49 | 200 | 0.0 | 0.0 | 0.00 | 0.00 | 0.01 | 99 | 1012.8 |
| 20260507120340 | 48 | 215 | 0.0 | 0.0 | 0.00 | 0.00 | 0.01 | 99 | 1012.8 |
| 20260507115712 | 48 | 213 | 0.0 | 0.0 | 0.00 | 0.00 | 0.01 | 99 | 1013.2 |
| 20260507115146 | 48 | 213 | 0.0 | 0.0 | 0.00 | 0.00 | 0.01 | 99 | 1012.8 |
| 20260507114527 | 48 | 202 | 0.0 | 0.0 | 0.00 | 0.00 | 0.01 | 99 | 1012.8 |
| 20260507113916 | 48 | 194 | 0.0 | 0.0 | 0.00 | 0.00 | 0.01 | 99 | 1012.8 |
| 20260507113326 | 48 | 197 | 0.0 | 0.0 | 0.00 | 0.00 | 0.01 | 99 | 1012.5 |
| 20260507112752 | 48 | 198 | 0.0 | 0.0 | 0.00 | 0.00 | 0.01 | 99 | 1012.5 |
| 20260507111513 | 48 | 196 | 0.0 | 0.0 | 0.00 | 0.00 | 0.01 | 99 | 1012.1 |
| 20260507110940 | 48 | 196 | 0.0 | 0.0 | 0.00 | 0.00 | 0.01 | 99 | 1012.1 |
| 20260507110320 | 48 | 195 | 0.0 | 0.0 | 0.00 | 0.00 | 0.01 | 99 | 1012.1 |
| 20260507105717 | 48 | 199 | 0.0 | 0.0 | 0.00 | 0.00 | 0.01 | 99 | 1012.1 |
| 20260507105143 | 48 | 199 | 0.0 | 0.0 | 0.00 | 0.00 | 0.01 | 99 | 1012.1 |
| 20260507104546 | 48 | 199 | 0.0 | 0.0 | 0.00 | 0.00 | 0.01 | 99 | 1011.8 |
| 20260507103320 | 47 | 201 | 0.0 | 0.0 | 0.00 | 0.00 | 0.01 | 99 | 1011.8 |
| 20260507102729 | 47 | 195 | 0.0 | 0.0 | 0.00 | 0.00 | 0.01 | 99 | 1011.8 |
| 20260507101525 | 47 | 191 | 0.0 | 0.0 | 0.00 | 0.00 | 0.01 | 99 | 1012.1 |
| 20260507100912 | 47 | 200 | 0.0 | 0.0 | 0.00 | 0.00 | 0.01 | 99 | 1012.1 |
| 20260507100332 | 47 | 195 | 0.0 | 0.0 | 0.00 | 0.00 | 0.01 | 99 | 1012.1 |
| 20260507095740 | 47 | 198 | 0.0 | 0.0 | 0.00 | 0.00 | 0.01 | 99 | 1012.1 |
| 20260507095110 | 47 | 197 | 0.0 | 0.0 | 0.00 | 0.00 | 0.01 | 99 | 1011.8 |
| 20260507093930 | 48 | 194 | 0.0 | 0.0 | 0.00 | 0.00 | 0.01 | 99 | 1011.8 |
| 20260507093344 | 48 | 199 | 0.0 | 0.0 | 0.00 | 0.00 | 0.01 | 99 | 1011.8 |
| 20260507092744 | 48 | 205 | 0.0 | 0.0 | 0.00 | 0.00 | 0.01 | 99 | 1011.5 |
| 20260507092130 | 48 | 195 | 0.0 | 0.0 | 0.00 | 0.00 | 0.01 | 99 | 1012.1 |
| 20260507091510 | 48 | 195 | 0.0 | 0.0 | 0.00 | 0.00 | 0.01 | 99 | 1011.8 |
| 20260507090939 | 48 | 202 | 0.0 | 0.0 | 0.00 | 0.00 | 0.01 | 99 | 1011.8 |
| 20260507090318 | 48 | 195 | 0.0 | 0.0 | 0.00 | 0.00 | 0.01 | 99 | 1011.5 |
| 20260507085715 | 48 | 195 | 0.0 | 0.0 | 0.00 | 0.00 | 0.01 | 99 | 1011.5 |
| 20260507085109 | 48 | 192 | 0.0 | 0.0 | 0.00 | 0.00 | 0.01 | 99 | 1011.5 |
| 20260507084541 | 48 | 197 | 0.0 | 0.0 | 0.00 | 0.00 | 0.01 | 99 | 1011.8 |
| 20260507083925 | 48 | 195 | 0.0 | 0.0 | 0.00 | 0.00 | 0.01 | 99 | 1011.8 |
| 20260507083327 | 48 | 195 | 0.0 | 0.0 | 0.00 | 0.00 | 0.01 | 99 | 1011.8 |
| 20260507082121 | 48 | 200 | 0.0 | 0.0 | 0.00 | 0.00 | 0.01 | 99 | 1011.8 |
| 20260507081530 | 48 | 202 | 0.0 | 0.0 | 0.00 | 0.00 | 0.01 | 99 | 1011.8 |
| 20260507080917 | 48 | 198 | 0.0 | 0.0 | 0.00 | 0.00 | 0.01 | 99 | 1011.5 |
| 20260507080337 | 48 | 198 | 0.0 | 0.0 | 0.00 | 0.00 | 0.01 | 99 | 1011.8 |
| 20260507075716 | 48 | 195 | 0.0 | 0.0 | 0.00 | 0.00 | 0.01 | 99 | 1011.8 |
| 20260507075135 | 49 | 197 | 0.0 | 0.0 | 0.00 | 0.00 | 0.01 | 99 | 1011.8 |
| 20260507074541 | 48 | 200 | 0.0 | 0.0 | 0.00 | 0.00 | 0.01 | 99 | 1011.8 |
| 20260507073952 | 49 | 190 | 0.0 | 0.0 | 0.00 | 0.00 | 0.01 | 99 | 1011.8 |
| 20260507073328 | 49 | 202 | 0.0 | 0.0 | 0.00 | 0.00 | 0.01 | 99 | 1011.5 |
| 20260507072748 | 49 | 213 | 0.0 | 0.0 | 0.00 | 0.00 | 0.01 | 99 | 1011.8 |
| 20260507072116 | 49 | 213 | 0.0 | 0.0 | 0.00 | 0.00 | 0.01 | 99 | 1011.8 |
| 20260507071537 | 49 | 213 | 0.0 | 0.0 | 0.00 | 0.00 | 0.01 | 99 | 1011.8 |
| 20260507070310 | 49 | 213 | 0.0 | 0.0 | 0.00 | 0.00 | 0.01 | 99 | 1011.8 |
| 20260507065753 | 49 | 213 | 0.0 | 0.0 | 0.00 | 0.00 | 0.01 | 99 | 1011.8 |
| 20260507064514 | 49 | 213 | 0.0 | 0.0 | 0.00 | 0.00 | 0.01 | 99 | 1011.8 |
| 20260507063913 | 49 | 202 | 0.0 | 0.0 | 0.00 | 0.00 | 0.01 | 99 | 1011.8 |
| 20260507063347 | 49 | 202 | 0.0 | 0.0 | 0.00 | 0.00 | 0.01 | 99 | 1011.8 |
| 20260507062716 | 49 | 198 | 0.0 | 0.0 | 0.00 | 0.00 | 0.01 | 99 | 1011.8 |
| 20260507062130 | 49 | 197 | 0.0 | 0.0 | 0.00 | 0.00 | 0.01 | 99 | 1011.8 |
| 20260507061517 | 49 | 204 | 0.0 | 0.0 | 0.00 | 0.00 | 0.01 | 99 | 1011.8 |
| 20260507060928 | 49 | 193 | 0.0 | 0.0 | 0.00 | 0.00 | 0.01 | 99 | 1011.8 |
| 20260507060317 | 49 | 213 | 0.0 | 1.0 | 0.00 | 0.00 | 0.01 | 99 | 1011.8 |
| 20260507055734 | 50 | 190 | 0.0 | 0.0 | 0.00 | 0.00 | 0.01 | 99 | 1011.8 |
| 20260507055110 | 50 | 191 | 0.0 | 0.0 | 0.00 | 0.00 | 0.01 | 99 | 1012.1 |
| 20260507053926 | 50 | 179 | 1.0 | 1.0 | 0.00 | 0.00 | 0.01 | 99 | 1012.1 |
| 20260507052712 | 50 | 191 | 0.0 | 0.0 | 0.00 | 0.00 | 0.01 | 99 | 1012.1 |
| 20260507052147 | 50 | 197 | 0.0 | 0.0 | 0.00 | 0.00 | 0.01 | 99 | 1012.1 |
| 20260507051524 | 50 | 198 | 0.0 | 0.0 | 0.00 | 0.00 | 0.00 | 99 | 1011.8 |
| 20260507050911 | 50 | 198 | 0.0 | 0.0 | 0.00 | 0.00 | 0.00 | 99 | 1012.1 |
| 20260507050342 | 50 | 195 | 0.0 | 0.0 | 0.00 | 0.00 | 0.00 | 99 | 1012.1 |
| 20260507045750 | 50 | 187 | 1.0 | 1.0 | 0.00 | 0.00 | 0.00 | 99 | 1012.1 |
| 20260507045142 | 50 | 173 | 2.0 | 2.0 | 0.00 | 0.00 | 0.00 | 99 | 1012.1 |
| 20260507044539 | 51 | 201 | 0.0 | 0.0 | 0.00 | 0.00 | 0.00 | 99 | 1012.1 |
| 20260507043954 | 51 | 195 | 0.0 | 0.0 | 0.00 | 0.00 | 0.00 | 99 | 1012.1 |